sensor_id;sensor_type;location;lat;lon;timestamp;P1;durP1;ratioP1;P2;durP2;ratioP2
47529;SDS011;33272;51.922;7.730;2023-02-11T00:00:05;35.93;;;25.70;;
47529;SDS011;33272;51.922;7.730;2023-02-11T00:02:33;37.13;;;25.00;;
47529;SDS011;33272;51.922;7.730;2023-02-11T00:04:59;37.00;;;25.07;;
47529;SDS011;33272;51.922;7.730;2023-02-11T00:07:27;39.70;;;27.27;;
47529;SDS011;33272;51.922;7.730;2023-02-11T00:09:54;39.53;;;24.63;;
47529;SDS011;33272;51.922;7.730;2023-02-11T00:12:21;35.03;;;24.50;;
47529;SDS011;33272;51.922;7.730;2023-02-11T00:19:51;38.63;;;25.70;;
47529;SDS011;33272;51.922;7.730;2023-02-11T00:22:18;35.80;;;23.03;;
47529;SDS011;33272;51.922;7.730;2023-02-11T00:24:44;35.87;;;25.33;;
47529;SDS011;33272;51.922;7.730;2023-02-11T00:27:11;35.63;;;23.63;;
47529;SDS011;33272;51.922;7.730;2023-02-11T00:29:37;37.97;;;25.40;;
47529;SDS011;33272;51.922;7.730;2023-02-11T00:32:04;38.63;;;24.80;;
47529;SDS011;33272;51.922;7.730;2023-02-11T00:34:31;35.97;;;23.73;;
47529;SDS011;33272;51.922;7.730;2023-02-11T00:45:53;36.03;;;24.07;;
47529;SDS011;33272;51.922;7.730;2023-02-11T00:48:19;34.90;;;24.37;;
47529;SDS011;33272;51.922;7.730;2023-02-11T00:50:45;33.30;;;23.17;;
47529;SDS011;33272;51.922;7.730;2023-02-11T00:53:12;34.93;;;24.40;;
47529;SDS011;33272;51.922;7.730;2023-02-11T00:55:38;35.27;;;23.80;;
47529;SDS011;33272;51.922;7.730;2023-02-11T00:58:04;31.60;;;22.50;;
47529;SDS011;33272;51.922;7.730;2023-02-11T01:00:31;32.60;;;23.77;;
47529;SDS011;33272;51.922;7.730;2023-02-11T01:02:59;33.13;;;22.20;;
47529;SDS011;33272;51.922;7.730;2023-02-11T01:05:26;36.03;;;23.70;;
47529;SDS011;33272;51.922;7.730;2023-02-11T01:07:53;37.93;;;23.73;;
47529;SDS011;33272;51.922;7.730;2023-02-11T01:10:20;34.63;;;22.70;;
47529;SDS011;33272;51.922;7.730;2023-02-11T01:12:47;35.73;;;24.33;;
47529;SDS011;33272;51.922;7.730;2023-02-11T01:15:15;34.33;;;23.00;;
47529;SDS011;33272;51.922;7.730;2023-02-11T01:17:44;34.57;;;23.27;;
47529;SDS011;33272;51.922;7.730;2023-02-11T01:20:13;35.60;;;23.27;;
47529;SDS011;33272;51.922;7.730;2023-02-11T01:22:43;31.70;;;22.60;;
47529;SDS011;33272;51.922;7.730;2023-02-11T01:25:10;33.07;;;22.17;;
47529;SDS011;33272;51.922;7.730;2023-02-11T01:27:37;33.53;;;22.83;;
47529;SDS011;33272;51.922;7.730;2023-02-11T01:30:05;30.27;;;21.97;;
47529;SDS011;33272;51.922;7.730;2023-02-11T01:32:35;30.17;;;22.00;;
47529;SDS011;33272;51.922;7.730;2023-02-11T01:35:03;35.10;;;21.37;;
47529;SDS011;33272;51.922;7.730;2023-02-11T01:37:32;32.60;;;22.00;;
47529;SDS011;33272;51.922;7.730;2023-02-11T01:40:00;32.27;;;21.53;;
47529;SDS011;33272;51.922;7.730;2023-02-11T01:42:27;32.47;;;21.80;;
47529;SDS011;33272;51.922;7.730;2023-02-11T01:44:56;29.80;;;22.30;;
47529;SDS011;33272;51.922;7.730;2023-02-11T01:47:23;32.30;;;22.33;;
47529;SDS011;33272;51.922;7.730;2023-02-11T01:49:51;35.80;;;20.87;;
47529;SDS011;33272;51.922;7.730;2023-02-11T01:52:25;32.33;;;21.63;;
47529;SDS011;33272;51.922;7.730;2023-02-11T01:55:00;31.63;;;21.70;;
47529;SDS011;33272;51.922;7.730;2023-02-11T01:57:50;32.10;;;21.50;;
47529;SDS011;33272;51.922;7.730;2023-02-11T02:00:22;31.97;;;22.50;;
47529;SDS011;33272;51.922;7.730;2023-02-11T02:02:57;31.20;;;21.70;;
47529;SDS011;33272;51.922;7.730;2023-02-11T02:05:32;33.10;;;20.43;;
47529;SDS011;33272;51.922;7.730;2023-02-11T02:08:06;30.10;;;20.90;;
47529;SDS011;33272;51.922;7.730;2023-02-11T02:10:41;31.80;;;20.07;;
47529;SDS011;33272;51.922;7.730;2023-02-11T02:13:13;32.63;;;20.70;;
47529;SDS011;33272;51.922;7.730;2023-02-11T02:15:43;31.50;;;20.83;;
47529;SDS011;33272;51.922;7.730;2023-02-11T02:18:19;29.50;;;19.50;;
47529;SDS011;33272;51.922;7.730;2023-02-11T02:24:38;27.43;;;19.80;;
47529;SDS011;33272;51.922;7.730;2023-02-11T02:27:31;28.30;;;19.67;;
47529;SDS011;33272;51.922;7.730;2023-02-11T02:33:21;28.10;;;19.87;;
47529;SDS011;33272;51.922;7.730;2023-02-11T02:36:06;29.90;;;18.47;;
47529;SDS011;33272;51.922;7.730;2023-02-11T02:38:43;26.90;;;18.57;;
47529;SDS011;33272;51.922;7.730;2023-02-11T02:41:19;26.90;;;18.50;;
47529;SDS011;33272;51.922;7.730;2023-02-11T02:43:50;27.40;;;17.83;;
47529;SDS011;33272;51.922;7.730;2023-02-11T02:46:18;26.30;;;18.07;;
47529;SDS011;33272;51.922;7.730;2023-02-11T02:48:49;27.23;;;17.10;;
47529;SDS011;33272;51.922;7.730;2023-02-11T02:54:46;25.23;;;18.20;;
47529;SDS011;33272;51.922;7.730;2023-02-11T02:57:34;25.47;;;17.60;;
47529;SDS011;33272;51.922;7.730;2023-02-11T03:00:17;22.87;;;17.00;;
47529;SDS011;33272;51.922;7.730;2023-02-11T03:02:57;22.43;;;16.90;;
47529;SDS011;33272;51.922;7.730;2023-02-11T03:05:44;24.83;;;16.30;;
47529;SDS011;33272;51.922;7.730;2023-02-11T03:08:23;26.90;;;17.57;;
47529;SDS011;33272;51.922;7.730;2023-02-11T03:10:55;25.53;;;17.13;;
47529;SDS011;33272;51.922;7.730;2023-02-11T03:13:25;25.63;;;16.47;;
47529;SDS011;33272;51.922;7.730;2023-02-11T03:15:57;26.23;;;17.37;;
47529;SDS011;33272;51.922;7.730;2023-02-11T03:18:32;22.57;;;15.87;;
47529;SDS011;33272;51.922;7.730;2023-02-11T03:21:03;26.07;;;16.73;;
47529;SDS011;33272;51.922;7.730;2023-02-11T03:23:34;24.67;;;17.43;;
47529;SDS011;33272;51.922;7.730;2023-02-11T03:26:07;24.70;;;16.30;;
47529;SDS011;33272;51.922;7.730;2023-02-11T03:28:41;24.97;;;16.93;;
47529;SDS011;33272;51.922;7.730;2023-02-11T03:31:16;24.23;;;16.40;;
47529;SDS011;33272;51.922;7.730;2023-02-11T03:33:53;24.10;;;17.50;;
47529;SDS011;33272;51.922;7.730;2023-02-11T03:36:30;28.00;;;17.33;;
47529;SDS011;33272;51.922;7.730;2023-02-11T03:39:10;27.30;;;16.17;;
47529;SDS011;33272;51.922;7.730;2023-02-11T03:41:40;25.67;;;16.30;;
47529;SDS011;33272;51.922;7.730;2023-02-11T03:44:09;23.00;;;16.30;;
47529;SDS011;33272;51.922;7.730;2023-02-11T03:46:40;23.57;;;16.63;;
47529;SDS011;33272;51.922;7.730;2023-02-11T03:49:14;26.47;;;16.80;;
47529;SDS011;33272;51.922;7.730;2023-02-11T03:51:46;28.70;;;17.97;;
47529;SDS011;33272;51.922;7.730;2023-02-11T03:54:18;27.10;;;18.27;;
47529;SDS011;33272;51.922;7.730;2023-02-11T03:56:54;27.77;;;17.77;;
47529;SDS011;33272;51.922;7.730;2023-02-11T03:59:24;27.63;;;18.07;;
47529;SDS011;33272;51.922;7.730;2023-02-11T04:01:51;26.43;;;18.60;;
47529;SDS011;33272;51.922;7.730;2023-02-11T04:04:19;31.63;;;18.77;;
47529;SDS011;33272;51.922;7.730;2023-02-11T04:06:48;28.20;;;18.03;;
47529;SDS011;33272;51.922;7.730;2023-02-11T04:09:15;31.27;;;18.93;;
47529;SDS011;33272;51.922;7.730;2023-02-11T04:11:42;30.60;;;19.20;;
47529;SDS011;33272;51.922;7.730;2023-02-11T04:14:09;30.73;;;19.43;;
47529;SDS011;33272;51.922;7.730;2023-02-11T04:16:36;26.23;;;18.03;;
47529;SDS011;33272;51.922;7.730;2023-02-11T04:19:03;25.37;;;18.80;;
47529;SDS011;33272;51.922;7.730;2023-02-11T04:21:30;29.50;;;18.93;;
47529;SDS011;33272;51.922;7.730;2023-02-11T04:23:58;25.67;;;18.67;;
47529;SDS011;33272;51.922;7.730;2023-02-11T04:26:25;26.07;;;19.77;;
47529;SDS011;33272;51.922;7.730;2023-02-11T04:28:52;26.70;;;18.60;;
47529;SDS011;33272;51.922;7.730;2023-02-11T04:31:19;25.77;;;19.10;;
47529;SDS011;33272;51.922;7.730;2023-02-11T04:33:46;30.50;;;19.30;;
47529;SDS011;33272;51.922;7.730;2023-02-11T04:36:13;27.87;;;18.63;;
47529;SDS011;33272;51.922;7.730;2023-02-11T04:38:40;29.47;;;19.30;;
47529;SDS011;33272;51.922;7.730;2023-02-11T04:41:08;24.87;;;18.47;;
47529;SDS011;33272;51.922;7.730;2023-02-11T04:43:35;27.73;;;18.50;;
47529;SDS011;33272;51.922;7.730;2023-02-11T04:46:02;26.40;;;18.27;;
47529;SDS011;33272;51.922;7.730;2023-02-11T04:48:29;28.57;;;19.63;;
47529;SDS011;33272;51.922;7.730;2023-02-11T04:50:56;28.07;;;19.37;;
47529;SDS011;33272;51.922;7.730;2023-02-11T04:53:23;26.03;;;17.70;;
47529;SDS011;33272;51.922;7.730;2023-02-11T04:55:50;28.03;;;19.13;;
47529;SDS011;33272;51.922;7.730;2023-02-11T04:58:19;30.73;;;17.90;;
47529;SDS011;33272;51.922;7.730;2023-02-11T05:00:46;24.20;;;18.77;;
47529;SDS011;33272;51.922;7.730;2023-02-11T05:03:13;29.67;;;19.80;;
47529;SDS011;33272;51.922;7.730;2023-02-11T05:05:41;26.23;;;18.23;;
47529;SDS011;33272;51.922;7.730;2023-02-11T05:08:09;28.10;;;18.23;;
47529;SDS011;33272;51.922;7.730;2023-02-11T05:10:36;23.07;;;18.43;;
47529;SDS011;33272;51.922;7.730;2023-02-11T05:13:03;29.33;;;19.63;;
47529;SDS011;33272;51.922;7.730;2023-02-11T05:15:32;29.93;;;17.73;;
47529;SDS011;33272;51.922;7.730;2023-02-11T05:17:59;31.27;;;19.73;;
47529;SDS011;33272;51.922;7.730;2023-02-11T05:20:26;26.03;;;18.43;;
47529;SDS011;33272;51.922;7.730;2023-02-11T05:22:53;24.30;;;16.87;;
47529;SDS011;33272;51.922;7.730;2023-02-11T05:25:20;23.57;;;16.73;;
47529;SDS011;33272;51.922;7.730;2023-02-11T05:27:47;27.10;;;17.40;;
47529;SDS011;33272;51.922;7.730;2023-02-11T05:30:14;23.30;;;17.57;;
47529;SDS011;33272;51.922;7.730;2023-02-11T05:32:42;26.50;;;18.27;;
47529;SDS011;33272;51.922;7.730;2023-02-11T05:35:09;24.83;;;18.27;;
47529;SDS011;33272;51.922;7.730;2023-02-11T05:37:36;24.17;;;18.30;;
47529;SDS011;33272;51.922;7.730;2023-02-11T05:40:04;25.07;;;17.90;;
47529;SDS011;33272;51.922;7.730;2023-02-11T05:42:31;22.20;;;17.60;;
47529;SDS011;33272;51.922;7.730;2023-02-11T05:44:58;26.87;;;19.60;;
47529;SDS011;33272;51.922;7.730;2023-02-11T05:47:25;25.07;;;17.97;;
47529;SDS011;33272;51.922;7.730;2023-02-11T05:49:54;29.00;;;18.40;;
47529;SDS011;33272;51.922;7.730;2023-02-11T05:52:21;25.57;;;19.07;;
47529;SDS011;33272;51.922;7.730;2023-02-11T05:54:49;26.50;;;18.97;;
47529;SDS011;33272;51.922;7.730;2023-02-11T05:57:16;28.33;;;19.97;;
47529;SDS011;33272;51.922;7.730;2023-02-11T05:59:43;26.80;;;17.17;;
47529;SDS011;33272;51.922;7.730;2023-02-11T06:02:10;22.83;;;18.03;;
47529;SDS011;33272;51.922;7.730;2023-02-11T06:04:37;31.53;;;19.20;;
47529;SDS011;33272;51.922;7.730;2023-02-11T06:07:05;27.07;;;20.47;;
47529;SDS011;33272;51.922;7.730;2023-02-11T06:09:32;26.03;;;18.77;;
47529;SDS011;33272;51.922;7.730;2023-02-11T06:11:59;26.40;;;18.13;;
47529;SDS011;33272;51.922;7.730;2023-02-11T06:14:26;29.90;;;18.60;;
47529;SDS011;33272;51.922;7.730;2023-02-11T06:16:53;28.30;;;19.00;;
47529;SDS011;33272;51.922;7.730;2023-02-11T06:19:20;29.03;;;19.37;;
47529;SDS011;33272;51.922;7.730;2023-02-11T06:21:47;28.50;;;20.03;;
47529;SDS011;33272;51.922;7.730;2023-02-11T06:24:16;31.40;;;19.87;;
47529;SDS011;33272;51.922;7.730;2023-02-11T06:26:44;29.23;;;21.13;;
47529;SDS011;33272;51.922;7.730;2023-02-11T06:29:11;31.33;;;21.00;;
47529;SDS011;33272;51.922;7.730;2023-02-11T06:31:38;22.77;;;17.40;;
47529;SDS011;33272;51.922;7.730;2023-02-11T06:34:05;32.13;;;20.93;;
47529;SDS011;33272;51.922;7.730;2023-02-11T06:36:32;28.20;;;19.87;;
47529;SDS011;33272;51.922;7.730;2023-02-11T06:39:00;24.63;;;18.77;;
47529;SDS011;33272;51.922;7.730;2023-02-11T06:41:28;28.30;;;19.40;;
47529;SDS011;33272;51.922;7.730;2023-02-11T06:43:55;28.70;;;19.33;;
47529;SDS011;33272;51.922;7.730;2023-02-11T06:46:22;26.53;;;19.83;;
47529;SDS011;33272;51.922;7.730;2023-02-11T06:48:49;29.57;;;19.33;;
47529;SDS011;33272;51.922;7.730;2023-02-11T06:51:16;30.83;;;21.27;;
47529;SDS011;33272;51.922;7.730;2023-02-11T06:53:44;25.93;;;19.03;;
47529;SDS011;33272;51.922;7.730;2023-02-11T06:56:13;28.23;;;20.00;;
47529;SDS011;33272;51.922;7.730;2023-02-11T06:58:44;31.47;;;19.87;;
47529;SDS011;33272;51.922;7.730;2023-02-11T07:01:12;27.97;;;20.13;;
47529;SDS011;33272;51.922;7.730;2023-02-11T07:03:42;32.47;;;21.27;;
47529;SDS011;33272;51.922;7.730;2023-02-11T07:06:11;29.60;;;20.27;;
47529;SDS011;33272;51.922;7.730;2023-02-11T07:08:40;29.17;;;20.73;;
47529;SDS011;33272;51.922;7.730;2023-02-11T07:11:10;30.67;;;20.57;;
47529;SDS011;33272;51.922;7.730;2023-02-11T07:13:39;32.10;;;20.33;;
47529;SDS011;33272;51.922;7.730;2023-02-11T07:16:09;33.17;;;21.40;;
47529;SDS011;33272;51.922;7.730;2023-02-11T07:18:39;32.87;;;21.53;;
47529;SDS011;33272;51.922;7.730;2023-02-11T07:21:07;34.40;;;21.90;;
47529;SDS011;33272;51.922;7.730;2023-02-11T07:23:35;29.30;;;20.73;;
47529;SDS011;33272;51.922;7.730;2023-02-11T07:26:03;32.00;;;21.70;;
47529;SDS011;33272;51.922;7.730;2023-02-11T07:28:32;32.60;;;21.13;;
47529;SDS011;33272;51.922;7.730;2023-02-11T07:31:04;31.40;;;21.37;;
47529;SDS011;33272;51.922;7.730;2023-02-11T07:33:34;34.33;;;22.67;;
47529;SDS011;33272;51.922;7.730;2023-02-11T07:36:02;31.63;;;21.83;;
47529;SDS011;33272;51.922;7.730;2023-02-11T07:38:31;34.93;;;22.37;;
47529;SDS011;33272;51.922;7.730;2023-02-11T07:41:00;36.17;;;22.37;;
47529;SDS011;33272;51.922;7.730;2023-02-11T07:43:28;37.47;;;22.17;;
47529;SDS011;33272;51.922;7.730;2023-02-11T07:45:55;34.30;;;22.37;;
47529;SDS011;33272;51.922;7.730;2023-02-11T07:48:23;35.30;;;23.57;;
47529;SDS011;33272;51.922;7.730;2023-02-11T07:50:51;34.33;;;23.67;;
47529;SDS011;33272;51.922;7.730;2023-02-11T07:53:18;37.10;;;22.83;;
47529;SDS011;33272;51.922;7.730;2023-02-11T07:55:45;32.60;;;22.00;;
47529;SDS011;33272;51.922;7.730;2023-02-11T07:58:12;36.43;;;22.47;;
47529;SDS011;33272;51.922;7.730;2023-02-11T08:00:39;33.03;;;22.73;;
47529;SDS011;33272;51.922;7.730;2023-02-11T08:03:06;34.43;;;22.57;;
47529;SDS011;33272;51.922;7.730;2023-02-11T08:05:36;40.83;;;23.37;;
47529;SDS011;33272;51.922;7.730;2023-02-11T08:08:04;36.27;;;23.33;;
47529;SDS011;33272;51.922;7.730;2023-02-11T08:10:31;39.43;;;25.20;;
47529;SDS011;33272;51.922;7.730;2023-02-11T08:12:58;34.90;;;23.43;;
47529;SDS011;33272;51.922;7.730;2023-02-11T08:15:25;38.70;;;22.60;;
47529;SDS011;33272;51.922;7.730;2023-02-11T08:17:52;34.80;;;24.47;;
47529;SDS011;33272;51.922;7.730;2023-02-11T08:20:19;38.43;;;23.53;;
47529;SDS011;33272;51.922;7.730;2023-02-11T08:22:46;36.30;;;23.47;;
47529;SDS011;33272;51.922;7.730;2023-02-11T08:25:14;39.83;;;23.33;;
47529;SDS011;33272;51.922;7.730;2023-02-11T08:27:42;33.73;;;23.17;;
47529;SDS011;33272;51.922;7.730;2023-02-11T08:30:09;38.50;;;23.37;;
47529;SDS011;33272;51.922;7.730;2023-02-11T08:32:37;31.97;;;22.13;;
47529;SDS011;33272;51.922;7.730;2023-02-11T08:35:05;37.27;;;23.60;;
47529;SDS011;33272;51.922;7.730;2023-02-11T08:37:32;39.10;;;24.10;;
47529;SDS011;33272;51.922;7.730;2023-02-11T08:40:00;32.50;;;23.10;;
47529;SDS011;33272;51.922;7.730;2023-02-11T08:42:28;38.80;;;23.57;;
47529;SDS011;33272;51.922;7.730;2023-02-11T08:44:55;35.50;;;23.77;;
47529;SDS011;33272;51.922;7.730;2023-02-11T08:47:22;37.57;;;23.73;;
47529;SDS011;33272;51.922;7.730;2023-02-11T08:49:49;40.13;;;24.90;;
47529;SDS011;33272;51.922;7.730;2023-02-11T08:52:16;36.97;;;23.30;;
47529;SDS011;33272;51.922;7.730;2023-02-11T08:54:43;33.20;;;21.93;;
47529;SDS011;33272;51.922;7.730;2023-02-11T08:57:10;33.43;;;22.60;;
47529;SDS011;33272;51.922;7.730;2023-02-11T08:59:38;35.90;;;23.67;;
47529;SDS011;33272;51.922;7.730;2023-02-11T09:02:05;37.23;;;24.17;;
47529;SDS011;33272;51.922;7.730;2023-02-11T09:04:36;41.30;;;24.47;;
47529;SDS011;33272;51.922;7.730;2023-02-11T09:07:03;33.67;;;23.43;;
47529;SDS011;33272;51.922;7.730;2023-02-11T09:09:30;34.50;;;23.40;;
47529;SDS011;33272;51.922;7.730;2023-02-11T09:11:57;40.87;;;24.33;;
47529;SDS011;33272;51.922;7.730;2023-02-11T09:14:25;35.87;;;23.13;;
47529;SDS011;33272;51.922;7.730;2023-02-11T09:16:54;34.47;;;22.53;;
47529;SDS011;33272;51.922;7.730;2023-02-11T09:19:21;40.17;;;22.63;;
47529;SDS011;33272;51.922;7.730;2023-02-11T09:21:48;37.90;;;24.00;;
47529;SDS011;33272;51.922;7.730;2023-02-11T09:24:15;41.00;;;24.87;;
47529;SDS011;33272;51.922;7.730;2023-02-11T09:26:42;39.90;;;23.33;;
47529;SDS011;33272;51.922;7.730;2023-02-11T09:29:10;42.30;;;24.77;;
47529;SDS011;33272;51.922;7.730;2023-02-11T09:31:37;35.13;;;22.43;;
47529;SDS011;33272;51.922;7.730;2023-02-11T09:34:06;37.57;;;23.87;;
47529;SDS011;33272;51.922;7.730;2023-02-11T09:36:34;37.83;;;22.47;;
47529;SDS011;33272;51.922;7.730;2023-02-11T09:39:05;42.27;;;23.97;;
47529;SDS011;33272;51.922;7.730;2023-02-11T09:41:40;35.90;;;24.00;;
47529;SDS011;33272;51.922;7.730;2023-02-11T09:44:31;35.50;;;23.67;;
47529;SDS011;33272;51.922;7.730;2023-02-11T09:47:01;36.30;;;22.70;;
47529;SDS011;33272;51.922;7.730;2023-02-11T09:49:34;34.83;;;22.53;;
47529;SDS011;33272;51.922;7.730;2023-02-11T09:52:07;39.17;;;23.70;;
47529;SDS011;33272;51.922;7.730;2023-02-11T09:54:44;40.23;;;23.00;;
47529;SDS011;33272;51.922;7.730;2023-02-11T09:57:19;39.10;;;24.30;;
47529;SDS011;33272;51.922;7.730;2023-02-11T09:59:47;37.73;;;23.50;;
47529;SDS011;33272;51.922;7.730;2023-02-11T10:02:16;40.87;;;23.93;;
47529;SDS011;33272;51.922;7.730;2023-02-11T10:05:01;36.93;;;23.57;;
47529;SDS011;33272;51.922;7.730;2023-02-11T10:07:45;36.47;;;23.10;;
47529;SDS011;33272;51.922;7.730;2023-02-11T10:10:24;33.37;;;21.50;;
47529;SDS011;33272;51.922;7.730;2023-02-11T10:13:06;39.67;;;22.83;;
47529;SDS011;33272;51.922;7.730;2023-02-11T10:16:06;38.57;;;21.87;;
47529;SDS011;33272;51.922;7.730;2023-02-11T10:18:55;34.03;;;22.30;;
47529;SDS011;33272;51.922;7.730;2023-02-11T10:21:43;36.27;;;22.80;;
47529;SDS011;33272;51.922;7.730;2023-02-11T10:24:23;31.70;;;22.37;;
47529;SDS011;33272;51.922;7.730;2023-02-11T10:26:52;37.17;;;22.57;;
47529;SDS011;33272;51.922;7.730;2023-02-11T10:29:24;35.43;;;22.57;;
47529;SDS011;33272;51.922;7.730;2023-02-11T10:32:00;38.37;;;23.43;;
47529;SDS011;33272;51.922;7.730;2023-02-11T10:34:38;38.93;;;22.50;;
47529;SDS011;33272;51.922;7.730;2023-02-11T10:37:09;36.80;;;23.37;;
47529;SDS011;33272;51.922;7.730;2023-02-11T10:39:39;33.77;;;21.80;;
47529;SDS011;33272;51.922;7.730;2023-02-11T10:42:07;36.63;;;23.63;;
47529;SDS011;33272;51.922;7.730;2023-02-11T10:44:38;35.03;;;22.57;;
47529;SDS011;33272;51.922;7.730;2023-02-11T10:47:11;37.10;;;23.67;;
47529;SDS011;33272;51.922;7.730;2023-02-11T10:49:43;34.93;;;22.87;;
47529;SDS011;33272;51.922;7.730;2023-02-11T10:52:14;37.73;;;23.77;;
47529;SDS011;33272;51.922;7.730;2023-02-11T10:54:57;34.47;;;22.53;;
47529;SDS011;33272;51.922;7.730;2023-02-11T10:57:40;36.53;;;23.10;;
47529;SDS011;33272;51.922;7.730;2023-02-11T11:03:03;33.93;;;23.30;;
47529;SDS011;33272;51.922;7.730;2023-02-11T11:05:44;34.67;;;22.67;;
47529;SDS011;33272;51.922;7.730;2023-02-11T11:08:15;40.67;;;24.83;;
47529;SDS011;33272;51.922;7.730;2023-02-11T11:10:45;35.23;;;22.93;;
47529;SDS011;33272;51.922;7.730;2023-02-11T11:13:27;38.03;;;23.77;;
47529;SDS011;33272;51.922;7.730;2023-02-11T11:16:15;38.47;;;23.47;;
47529;SDS011;33272;51.922;7.730;2023-02-11T11:18:46;39.27;;;23.40;;
47529;SDS011;33272;51.922;7.730;2023-02-11T11:21:17;35.97;;;21.83;;
47529;SDS011;33272;51.922;7.730;2023-02-11T11:26:39;35.90;;;22.13;;
47529;SDS011;33272;51.922;7.730;2023-02-11T11:29:11;37.80;;;22.53;;
47529;SDS011;33272;51.922;7.730;2023-02-11T11:31:46;35.27;;;22.17;;
47529;SDS011;33272;51.922;7.730;2023-02-11T11:34:21;34.03;;;22.33;;
47529;SDS011;33272;51.922;7.730;2023-02-11T11:36:53;38.83;;;23.37;;
47529;SDS011;33272;51.922;7.730;2023-02-11T11:39:23;36.57;;;23.97;;
47529;SDS011;33272;51.922;7.730;2023-02-11T11:41:55;40.83;;;24.27;;
47529;SDS011;33272;51.922;7.730;2023-02-11T11:44:28;34.70;;;24.33;;
47529;SDS011;33272;51.922;7.730;2023-02-11T11:52:56;41.03;;;23.93;;
47529;SDS011;33272;51.922;7.730;2023-02-11T11:55:32;38.43;;;24.50;;
47529;SDS011;33272;51.922;7.730;2023-02-11T11:58:08;41.87;;;24.67;;
47529;SDS011;33272;51.922;7.730;2023-02-11T12:00:43;36.63;;;23.33;;
47529;SDS011;33272;51.922;7.730;2023-02-11T12:03:40;37.37;;;24.20;;
47529;SDS011;33272;51.922;7.730;2023-02-11T12:06:52;33.77;;;22.57;;
47529;SDS011;33272;51.922;7.730;2023-02-11T12:09:35;39.63;;;23.97;;
47529;SDS011;33272;51.922;7.730;2023-02-11T12:15:03;40.17;;;23.73;;
47529;SDS011;33272;51.922;7.730;2023-02-11T12:17:48;38.90;;;24.00;;
47529;SDS011;33272;51.922;7.730;2023-02-11T12:20:33;36.57;;;23.63;;
47529;SDS011;33272;51.922;7.730;2023-02-11T12:23:19;38.73;;;22.43;;
47529;SDS011;33272;51.922;7.730;2023-02-11T12:25:59;33.97;;;22.73;;
47529;SDS011;33272;51.922;7.730;2023-02-11T12:28:39;33.50;;;23.03;;
47529;SDS011;33272;51.922;7.730;2023-02-11T12:31:30;37.57;;;23.23;;
47529;SDS011;33272;51.922;7.730;2023-02-11T12:34:20;37.17;;;23.77;;
47529;SDS011;33272;51.922;7.730;2023-02-11T12:37:03;34.87;;;23.07;;
47529;SDS011;33272;51.922;7.730;2023-02-11T12:39:39;37.93;;;24.47;;
47529;SDS011;33272;51.922;7.730;2023-02-11T12:42:17;39.10;;;23.80;;
47529;SDS011;33272;51.922;7.730;2023-02-11T12:45:34;33.90;;;23.00;;
47529;SDS011;33272;51.922;7.730;2023-02-11T12:48:20;34.47;;;24.17;;
47529;SDS011;33272;51.922;7.730;2023-02-11T12:51:06;38.13;;;24.23;;
47529;SDS011;33272;51.922;7.730;2023-02-11T12:53:51;42.50;;;23.77;;
47529;SDS011;33272;51.922;7.730;2023-02-11T12:56:42;34.53;;;23.47;;
47529;SDS011;33272;51.922;7.730;2023-02-11T12:59:16;35.97;;;22.70;;
47529;SDS011;33272;51.922;7.730;2023-02-11T13:02:02;37.37;;;24.63;;
47529;SDS011;33272;51.922;7.730;2023-02-11T13:04:42;31.70;;;21.47;;
47529;SDS011;33272;51.922;7.730;2023-02-11T13:07:18;38.30;;;24.63;;
47529;SDS011;33272;51.922;7.730;2023-02-11T13:09:52;41.90;;;25.30;;
47529;SDS011;33272;51.922;7.730;2023-02-11T13:12:23;36.80;;;23.97;;
47529;SDS011;33272;51.922;7.730;2023-02-11T13:15:12;35.83;;;22.77;;
47529;SDS011;33272;51.922;7.730;2023-02-11T13:17:44;42.37;;;23.70;;
47529;SDS011;33272;51.922;7.730;2023-02-11T13:20:25;33.70;;;23.20;;
47529;SDS011;33272;51.922;7.730;2023-02-11T13:23:05;39.97;;;24.97;;
47529;SDS011;33272;51.922;7.730;2023-02-11T13:25:45;38.27;;;23.03;;
47529;SDS011;33272;51.922;7.730;2023-02-11T13:28:26;34.97;;;22.63;;
47529;SDS011;33272;51.922;7.730;2023-02-11T13:31:05;38.07;;;25.00;;
47529;SDS011;33272;51.922;7.730;2023-02-11T13:33:37;45.33;;;28.63;;
47529;SDS011;33272;51.922;7.730;2023-02-11T13:36:22;39.03;;;24.83;;
47529;SDS011;33272;51.922;7.730;2023-02-11T13:38:52;44.00;;;24.77;;
47529;SDS011;33272;51.922;7.730;2023-02-11T13:41:31;36.30;;;23.23;;
47529;SDS011;33272;51.922;7.730;2023-02-11T13:44:03;37.57;;;22.93;;
47529;SDS011;33272;51.922;7.730;2023-02-11T13:46:59;35.40;;;24.13;;
47529;SDS011;33272;51.922;7.730;2023-02-11T13:49:31;36.00;;;23.67;;
47529;SDS011;33272;51.922;7.730;2023-02-11T13:52:05;35.00;;;22.77;;
47529;SDS011;33272;51.922;7.730;2023-02-11T13:54:46;32.23;;;20.87;;
47529;SDS011;33272;51.922;7.730;2023-02-11T13:57:28;30.33;;;22.10;;
47529;SDS011;33272;51.922;7.730;2023-02-11T14:03:20;33.53;;;22.60;;
47529;SDS011;33272;51.922;7.730;2023-02-11T14:06:10;35.67;;;22.07;;
47529;SDS011;33272;51.922;7.730;2023-02-11T14:08:57;34.90;;;22.20;;
47529;SDS011;33272;51.922;7.730;2023-02-11T14:11:47;30.57;;;20.33;;
47529;SDS011;33272;51.922;7.730;2023-02-11T14:14:17;33.07;;;20.47;;
47529;SDS011;33272;51.922;7.730;2023-02-11T14:19:58;29.83;;;20.90;;
47529;SDS011;33272;51.922;7.730;2023-02-11T14:22:38;32.90;;;21.87;;
47529;SDS011;33272;51.922;7.730;2023-02-11T14:25:15;31.47;;;21.30;;
47529;SDS011;33272;51.922;7.730;2023-02-11T14:27:47;30.87;;;19.77;;
47529;SDS011;33272;51.922;7.730;2023-02-11T14:36:34;29.83;;;20.33;;
47529;SDS011;33272;51.922;7.730;2023-02-11T14:39:24;29.93;;;20.27;;
47529;SDS011;33272;51.922;7.730;2023-02-11T14:42:06;33.50;;;20.50;;
47529;SDS011;33272;51.922;7.730;2023-02-11T14:44:44;27.23;;;19.37;;
47529;SDS011;33272;51.922;7.730;2023-02-11T14:47:15;30.97;;;21.60;;
47529;SDS011;33272;51.922;7.730;2023-02-11T14:49:45;30.27;;;20.77;;
47529;SDS011;33272;51.922;7.730;2023-02-11T14:52:15;29.57;;;20.03;;
47529;SDS011;33272;51.922;7.730;2023-02-11T14:54:54;26.97;;;19.63;;
47529;SDS011;33272;51.922;7.730;2023-02-11T14:57:39;27.73;;;19.00;;
47529;SDS011;33272;51.922;7.730;2023-02-11T15:00:13;27.80;;;20.13;;
47529;SDS011;33272;51.922;7.730;2023-02-11T15:02:45;29.83;;;20.60;;
47529;SDS011;33272;51.922;7.730;2023-02-11T15:05:13;29.57;;;20.30;;
47529;SDS011;33272;51.922;7.730;2023-02-11T15:07:44;26.97;;;19.87;;
47529;SDS011;33272;51.922;7.730;2023-02-11T15:10:20;24.87;;;18.27;;
47529;SDS011;33272;51.922;7.730;2023-02-11T15:12:55;26.97;;;18.60;;
47529;SDS011;33272;51.922;7.730;2023-02-11T15:15:22;27.97;;;18.73;;
47529;SDS011;33272;51.922;7.730;2023-02-11T15:17:50;28.50;;;17.97;;
47529;SDS011;33272;51.922;7.730;2023-02-11T15:20:19;26.67;;;18.97;;
47529;SDS011;33272;51.922;7.730;2023-02-11T15:22:52;29.33;;;19.00;;
47529;SDS011;33272;51.922;7.730;2023-02-11T15:25:25;29.90;;;19.90;;
47529;SDS011;33272;51.922;7.730;2023-02-11T15:27:54;27.20;;;18.03;;
47529;SDS011;33272;51.922;7.730;2023-02-11T15:30:23;29.73;;;20.03;;
47529;SDS011;33272;51.922;7.730;2023-02-11T15:33:00;23.93;;;18.63;;
47529;SDS011;33272;51.922;7.730;2023-02-11T15:35:31;25.33;;;18.10;;
47529;SDS011;33272;51.922;7.730;2023-02-11T15:38:01;27.10;;;19.67;;
47529;SDS011;33272;51.922;7.730;2023-02-11T15:40:31;29.03;;;19.40;;